Serrana, Brazil
Current Conditions -  °F | °C
As of 10:00 PM on Tuesday 21 Oct 2014 (Local Time) from SBRP Reporting Station
Clear Clear  
Wind Chill: 75°   Ceiling: Unl
Heat Index: 75°   Visibility: 6mi
Dew Point: 54°   Wind: 13mph
Humidity: 47%   Direction: 150°SSE
Pressure: 30.03"   Gusts: NA
Location:  21.21°S, 47.6°W
Report Text: SBRP 220000Z 15011KT CAVOK 24/12 Q1017
Loading
Personal Weather Stations






























Interactive Weather Map
Tropical Storm Tracking
New forecast layout! Learn more

10-Day Weather Forecast

Advertisements
Track Severe Weather on mobile